createdAt,value
2023-03-17T00:02:39.179Z,60.69
2023-03-17T00:07:48.406Z,64.07
2023-03-17T00:12:56.793Z,65.15
2023-03-17T00:18:05.468Z,65.12
2023-03-17T00:23:19.311Z,64.98
2023-03-17T00:28:29.202Z,65.16
2023-03-17T00:33:38.388Z,65.23
2023-03-17T00:38:47.742Z,65.36
2023-03-17T00:43:56.005Z,65.47
2023-03-17T00:49:05.652Z,65.53
2023-03-17T00:54:15.959Z,65.45
2023-03-17T00:59:37.752Z,65.29
2023-03-17T01:04:59.544Z,65.26
2023-03-17T01:10:19.929Z,65.20
2023-03-17T01:15:30.746Z,65.17
2023-03-17T01:20:39.884Z,65.01
2023-03-17T01:25:48.162Z,65.13
2023-03-17T01:30:57.270Z,65.08
2023-03-17T01:36:05.915Z,65.10
2023-03-17T01:41:14.834Z,65.18
2023-03-17T01:46:30.590Z,65.28
2023-03-17T01:51:44.832Z,65.18
2023-03-17T01:56:55.664Z,65.03
2023-03-17T02:02:11.246Z,64.76
2023-03-17T02:07:19.255Z,64.45
2023-03-17T02:12:29.388Z,64.20
2023-03-17T02:17:37.540Z,64.17
2023-03-17T02:22:44.933Z,64.18
2023-03-17T02:27:58.697Z,64.00
2023-03-17T02:33:06.465Z,63.80
2023-03-17T02:38:14.098Z,63.64
2023-03-17T02:43:21.893Z,63.58
2023-03-17T02:48:31.067Z,63.63
2023-03-17T02:53:39.212Z,63.62
2023-03-17T02:58:47.815Z,63.73
2023-03-17T03:03:55.991Z,63.72
2023-03-17T03:09:04.309Z,63.78
2023-03-17T03:14:13.205Z,63.84
2023-03-17T03:19:22.820Z,63.82
2023-03-17T03:24:30.974Z,63.91
2023-03-17T03:29:39.292Z,64.16
2023-03-17T03:34:47.578Z,64.45
2023-03-17T03:39:56.205Z,64.68
2023-03-17T03:45:04.657Z,64.90
2023-03-17T03:50:14.755Z,65.04
2023-03-17T03:55:23.230Z,65.13
2023-03-17T04:00:32.805Z,65.22
2023-03-17T04:05:42.324Z,65.27
2023-03-17T04:10:50.499Z,65.32
2023-03-17T04:15:58.335Z,65.30
2023-03-17T04:21:08.111Z,65.29
2023-03-17T04:26:18.225Z,65.35
2023-03-17T04:31:26.299Z,65.39
2023-03-17T04:36:33.925Z,65.40
2023-03-17T04:41:41.795Z,65.48
2023-03-17T04:46:50.172Z,65.57
2023-03-17T04:51:58.868Z,65.69
2023-03-17T04:57:07.758Z,65.91
2023-03-17T05:02:16.260Z,66.20
2023-03-17T05:07:24.826Z,66.55
2023-03-17T05:12:33.255Z,66.90
2023-03-17T05:17:42.188Z,67.20
2023-03-17T05:22:50.380Z,67.44
2023-03-17T05:27:59.106Z,67.73
2023-03-17T05:33:08.174Z,68.11
2023-03-17T05:38:17.584Z,68.31
2023-03-17T05:43:25.817Z,68.45
2023-03-17T05:48:34.027Z,68.61
2023-03-17T05:53:42.353Z,68.77
2023-03-17T05:58:50.691Z,68.98
2023-03-17T06:04:01.835Z,69.08
2023-03-17T06:09:10.944Z,69.22
2023-03-17T06:14:18.677Z,69.36
2023-03-17T06:19:27.893Z,69.44
2023-03-17T06:24:35.574Z,69.45
2023-03-17T06:29:43.137Z,69.51
2023-03-17T06:34:51.682Z,69.56
2023-03-17T06:40:01.380Z,69.66
2023-03-17T06:45:10.746Z,69.75
2023-03-17T06:50:19.328Z,69.84
2023-03-17T06:55:27.802Z,69.90
2023-03-17T07:00:35.985Z,69.92
2023-03-17T07:05:44.562Z,70.06
2023-03-17T07:10:53.200Z,70.23
2023-03-17T07:16:01.622Z,70.41
2023-03-17T07:21:10.973Z,70.57
2023-03-17T07:28:45.612Z,70.63
2023-03-17T07:34:09.023Z,70.30
2023-03-17T07:39:17.790Z,70.69
2023-03-17T07:44:27.994Z,70.94
2023-03-17T07:49:41.706Z,71.07
2023-03-17T07:54:52.003Z,71.17
2023-03-17T08:00:00.275Z,71.16
2023-03-17T08:05:09.455Z,71.04
2023-03-17T08:10:18.719Z,70.86
2023-03-17T08:15:27.120Z,70.73
2023-03-17T08:20:36.069Z,70.58
2023-03-17T08:25:44.307Z,70.41
2023-03-17T08:30:52.163Z,71.17
2023-03-17T08:36:00.626Z,70.27
2023-03-17T08:41:12.719Z,69.11
2023-03-17T08:46:23.385Z,68.15
2023-03-17T08:51:34.734Z,67.06
2023-03-17T08:56:43.667Z,65.77
2023-03-17T09:01:52.237Z,65.46
2023-03-17T09:07:04.072Z,65.42
2023-03-17T09:12:14.105Z,65.19
2023-03-17T09:17:22.411Z,64.68
2023-03-17T09:22:31.136Z,64.10
2023-03-17T09:27:40.346Z,62.36
2023-03-17T09:32:48.896Z,57.40
2023-03-17T09:37:56.829Z,57.34
2023-03-17T09:43:19.036Z,58.45
2023-03-17T09:48:49.207Z,58.89
2023-03-17T09:54:01.858Z,58.85
2023-03-17T09:59:30.346Z,59.89
2023-03-17T10:04:38.395Z,63.00
2023-03-17T10:09:48.773Z,64.84
2023-03-17T10:15:04.308Z,63.65
2023-03-17T10:20:26.165Z,62.38
2023-03-17T10:25:36.825Z,60.79
2023-03-17T10:30:45.428Z,57.88
2023-03-17T10:35:54.601Z,57.55
2023-03-17T10:41:10.236Z,58.30
2023-03-17T10:46:26.425Z,58.82
2023-03-17T10:51:37.356Z,59.39
2023-03-17T10:56:48.866Z,59.90
2023-03-17T11:02:01.167Z,60.67
2023-03-17T11:07:11.318Z,62.34
2023-03-17T11:12:28.296Z,62.51
2023-03-17T11:17:53.866Z,60.93
2023-03-17T11:23:09.270Z,59.80
2023-03-17T11:28:22.825Z,57.67
2023-03-17T11:33:53.235Z,57.16
2023-03-17T11:39:09.384Z,57.43
2023-03-17T11:44:42.252Z,57.77
2023-03-17T11:49:55.154Z,58.16
2023-03-17T11:55:15.559Z,58.73
2023-03-17T12:00:34.332Z,59.18
2023-03-17T12:05:45.190Z,59.68
2023-03-17T12:10:56.952Z,59.99
2023-03-17T12:16:11.704Z,61.01
2023-03-17T12:21:27.544Z,60.96
2023-03-17T12:26:43.569Z,60.89
2023-03-17T12:32:03.753Z,61.29
2023-03-17T12:37:12.941Z,61.19
2023-03-17T12:42:38.667Z,60.94
2023-03-17T12:48:09.486Z,60.78
2023-03-17T12:53:30.655Z,61.64
2023-03-17T12:58:42.282Z,61.02
2023-03-17T13:04:07.453Z,60.60
2023-03-17T13:09:53.695Z,60.53
2023-03-17T13:15:03.086Z,60.33
2023-03-17T13:20:20.906Z,60.04
2023-03-17T13:25:54.004Z,59.84
2023-03-17T13:31:13.636Z,59.87
2023-03-17T13:36:31.121Z,60.00
2023-03-17T13:41:51.830Z,59.63
2023-03-17T13:47:17.769Z,59.49
2023-03-17T13:52:32.721Z,59.27
2023-03-17T13:57:43.307Z,58.85
2023-03-17T14:02:59.486Z,58.61
2023-03-17T14:08:17.094Z,58.36
2023-03-17T14:13:28.844Z,58.10
2023-03-17T14:18:40.324Z,57.83
2023-03-17T14:23:56.799Z,57.69
2023-03-17T14:29:06.747Z,57.36
2023-03-17T14:34:18.119Z,57.37
2023-03-17T14:39:29.783Z,57.30
2023-03-17T14:44:47.717Z,57.21
2023-03-17T14:49:57.288Z,57.13
2023-03-17T14:55:05.366Z,57.14
2023-03-17T15:00:39.091Z,57.37
2023-03-17T15:05:48.532Z,57.06
2023-03-17T15:10:59.316Z,56.59
2023-03-17T15:16:17.271Z,56.44
2023-03-17T15:21:34.508Z,56.01
2023-03-17T15:26:43.997Z,55.78
2023-03-17T15:31:52.969Z,55.62
2023-03-17T15:37:01.876Z,55.36
2023-03-17T15:42:09.623Z,55.28
2023-03-17T15:47:19.246Z,55.12
2023-03-17T15:52:29.375Z,54.99
2023-03-17T15:57:37.756Z,54.84
2023-03-17T16:02:46.311Z,54.60
2023-03-17T16:07:56.074Z,54.48
2023-03-17T16:13:03.669Z,54.31
2023-03-17T16:18:17.353Z,54.17
2023-03-17T16:23:28.380Z,54.21
2023-03-17T16:28:36.860Z,54.19
2023-03-17T16:33:44.383Z,54.09
2023-03-17T16:38:52.474Z,54.05
2023-03-17T16:44:03.428Z,53.95
2023-03-17T16:49:14.450Z,53.89
2023-03-17T16:54:22.462Z,53.87
2023-03-17T16:59:32.237Z,53.94
2023-03-17T17:04:41.565Z,54.08
2023-03-17T17:09:48.818Z,54.31
2023-03-17T17:14:57.001Z,54.49
2023-03-17T17:20:06.028Z,54.69
2023-03-17T17:25:14.463Z,54.84
2023-03-17T17:30:26.102Z,55.01
2023-03-17T17:35:36.125Z,55.19
2023-03-17T17:40:44.382Z,55.36
2023-03-17T17:45:52.998Z,55.53
2023-03-17T17:51:02.792Z,55.66
2023-03-17T17:56:13.872Z,55.83
2023-03-17T18:01:23.107Z,55.98
2023-03-17T18:06:32.659Z,56.11
2023-03-17T18:11:42.851Z,56.29
2023-03-17T18:16:51.976Z,56.46
2023-03-17T18:22:00.218Z,56.60
2023-03-17T18:27:10.078Z,56.76
2023-03-17T18:32:19.248Z,56.93
2023-03-17T18:37:31.105Z,57.08
2023-03-17T18:42:39.394Z,57.20
2023-03-17T18:47:48.404Z,57.36
2023-03-17T18:52:57.898Z,57.46
2023-03-17T18:58:06.798Z,57.57
2023-03-17T19:03:16.437Z,57.65
2023-03-17T19:08:25.776Z,57.75
2023-03-17T19:13:34.286Z,57.86
2023-03-17T19:18:43.473Z,57.94
2023-03-17T19:23:52.598Z,57.98
2023-03-17T19:29:01.023Z,58.01
2023-03-17T19:34:10.430Z,58.11
2023-03-17T19:39:19.041Z,58.16
2023-03-17T19:44:27.627Z,58.22
2023-03-17T19:49:37.227Z,58.29
2023-03-17T19:54:46.480Z,58.28
2023-03-17T19:59:54.831Z,58.29
2023-03-17T20:05:02.496Z,58.26
2023-03-17T20:10:12.736Z,58.25
2023-03-17T20:15:20.425Z,58.20
2023-03-17T20:20:28.929Z,58.16
2023-03-17T20:25:37.818Z,58.11
2023-03-17T20:30:48.639Z,58.05
2023-03-17T20:35:58.253Z,58.05
2023-03-17T20:41:14.449Z,58.01
2023-03-17T20:46:25.072Z,58.00
2023-03-17T20:51:32.734Z,57.98
2023-03-17T20:56:41.884Z,57.95
2023-03-17T21:01:50.425Z,57.94
2023-03-17T21:06:59.420Z,57.94
2023-03-17T21:12:08.033Z,57.91
2023-03-17T21:17:18.399Z,57.90
2023-03-17T21:22:27.016Z,57.92
2023-03-17T21:27:37.312Z,57.92
2023-03-17T21:32:46.211Z,57.88
2023-03-17T21:37:55.132Z,57.95
2023-03-17T21:43:02.574Z,57.98
2023-03-17T21:48:11.724Z,57.94
2023-03-17T21:53:20.575Z,57.89
2023-03-17T21:58:29.696Z,57.91
2023-03-17T22:03:40.180Z,57.93
2023-03-17T22:08:51.123Z,57.92
2023-03-17T22:14:00.177Z,57.92
2023-03-17T22:19:10.336Z,57.91
2023-03-17T22:24:19.277Z,57.90
2023-03-17T22:29:28.301Z,57.77
2023-03-17T22:34:37.213Z,57.79
2023-03-17T22:39:45.942Z,57.71
2023-03-17T22:44:54.500Z,57.67
2023-03-17T22:50:03.157Z,57.62
2023-03-17T22:55:12.685Z,57.59
2023-03-17T23:00:21.917Z,57.57
2023-03-17T23:05:30.159Z,57.48
2023-03-17T23:10:40.332Z,57.47
2023-03-17T23:15:47.896Z,57.45
2023-03-17T23:20:55.510Z,57.44
2023-03-17T23:26:03.482Z,57.37
2023-03-17T23:31:11.416Z,57.36
2023-03-17T23:36:19.890Z,57.25
2023-03-17T23:41:27.465Z,57.26
2023-03-17T23:46:36.103Z,57.21
2023-03-17T23:51:44.453Z,57.11
2023-03-17T23:56:53.083Z,57.16
